Sapp, Missouri
Current Conditions -  °F | °C
As of 2:54 PM on Thursday 23 Oct 2014 (Local Time) from KCOU Reporting Station
Overcast Overcast  
Wind Chill: 16°   Ceiling: 6000
Heat Index: 16°   Visibility: 10mi
Dew Point: 11°   Wind: 9mph
Humidity: 70%   Direction: 200°SSW
Pressure: 30.09"   Gusts: NA
Location:  38.895°N, 92.3958°W
Report Text: KCOU 231954Z 20008KT 10SM BKN060 OVC095 16/11 A3009 RMK AO2 SLP189 T01610106
Loading
Personal Weather Stations






























Interactive Weather Map
Tropical Storm Tracking
New forecast layout! Learn more

10-Day Weather Forecast

Advertisements
Track Severe Weather on mobile